Cocoa, FL (32926)

9:18 AM EDT on October 23, 2014 (GMT -0400)
Parkchester | Change Station
CLOSE
Current Station
Personal Weather Station
Location: Cocoa, FL
Elevation: 52 ft
Nearby Weather Stations

Elev 52 ft 28.41 °N, 80.75 °W | Updated 5 minutes ago

Clear
Clear
72.6 °F
Feels Like 75 °F
N
0.0
Wind Variable Wind from NNE
Gusts 9.0 mph

Today
High -- | Low -- °F
--% Chance of Precip.
Yesterday
High -- | Low -- °F
Precip. -- in
7:28 AM 6:45 PM
Waning Crescent, 0% visible
Pressure 30.00 in
Visibility 7.0 miles
Clouds Clear
Heat Index 75 °F
Dew Point 63 °F
Humidity 72%
Rainfall 0.00 in
Snow Depth Not available.
UV 1 out of 12
Pollen 6.10 out of 12
Air Quality Not available.
Flu Activity Not available.
METAR KTIX 231247Z 05006KT 7SM SKC 22/15 A3000

More Conditions Fewer Conditions

Pressure 30.00 in
Visibility 7.0 miles
Clouds Clear
Heat Index 75 °F
Dew Point 63 °F
Humidity 72%
Rainfall 0.00 in
Snow Depth Not available.
UV 1 out of 12
Pollen 6.10 out of 12
Air Quality Not available.
Flu Activity Not available.
METAR KTIX 231247Z 05006KT 7SM SKC 22/15 A3000

More Conditions Fewer Conditions

Nowcast | as of 8:49 am EDT on October 23, 2014

Drier air has pushed into east central Florida behind a cold front that will continue to drift southward today. Winds out of the northeast will keep high temperatures in the upper 70s to around 80 at the coast...and lower 80s well inland. Plenty of sunshine is expected...except for a few more clouds along the Treasure Coast. Small craft should exercise caution from Brevard County to Jupiter Inlet for seas building to 5 to 6 feet from 20nm-60nm offshore. Additional details...including graphics are available online at: http://www.Srh.NOAA.Gov/mlb/blog.Php

×

10-Day Weather Forecast

Almanac

Astronomy

Oct. 23, 2014 Rise Set
Actual Time 7:28 AM EDT 6:45 PM EDT
Civil Twilight 7:04 AM EDT 7:09 PM EDT
Nautical Twilight 6:37 AM EDT 7:37 PM EDT
Astronomical Twilight 6:09 AM EDT 8:04 PM EDT
Moon 7:08 AM EDT 6:46 PM EDT
Length of Visible Light 12h 04m
Length of Day
11h 17m
Tomorrow will be 1m 34s shorter.
Waning Crescent, 0% of the Moon is Illuminated
Today
Waning Crescent
Oct 23
New
Oct 30
First Quarter
Nov 6
Full
Nov 14
Last Quarter

Today's Extremes

State Highs State Lows

Community

WunderPhotos

Upload Photos

1,764,231 photos uploaded!

Nearby

Snow Depth

Station Depth Elevation
No new snow has been reported.

Earthquake Activity

City Distance Mag. Time & Date
No recent earthquake activity has been reported nearby.
Minimum magnitude displayed is 2.5.

Coastal Water Temperatures

Place Temperature
Trident Pier, FL 80.1 °F
Fort Myers, FL 80.1 °F
Lake Worth, FL 82.0 °F

Nearby Weather Stations